Skip Navigation Links Skip Navigation Links

Current Weather

Marina Municipal, Marina, Calif.

For information only: do not use for flight planning or navigation.
Latest weather
Observation time Thursday, January 27, 2022 9:35 PM PST
Local time Thursday, January 27, 2022 10:09 PM PST
Flight conditions Visual Meteorological Conditions
Winds
Wind direction East (100°)
Wind speed 3 mph
Visibility 10 mi.
Sky condition
Ceiling unlimited
Sky clear
Temperature 46°F
Dewpoint 41°F
Altimeter 30.24 in.Hg
Derived measurements
Relative humidity 81%
Wind chill 45°F
Density altitude -945 ft.
Remarks
Fully automated report.
Automated weather observing station with precipitation discriminator.
METAR KOAR 280535Z AUTO 10003KT 10SM CLR 08/05 A3024 RMK AO2

Settings

Location code

InnerDrive.Weather 4.0.6770.0 Release CLR 4.0.30319.42000
Copyright ©2018 Inner Drive Technology. All rights reserved. Portions Copyright ©1986-2018 David Braverman.

Find weather

Site navigation


Skip Navigation Links

Place info

Page info

PayPal - The safer, easier way to pay online!

Return home.

Copyright ©2022 Inner Drive Technology. Purveyors of fine, hand-crafted computer software. Page printed 2022-01-28T06:09:15 UTC.